Cereal, Canada
Current Conditions -  °F | °C
As of 2:00 AM on Wednesday 26 Nov 2014 (Local Time) from CYKY Reporting Station
Overcast Overcast  
Wind Chill:   Ceiling: 2500
Heat Index: 10°   Visibility: 15mi
Dew Point:   Wind: 6mph
Humidity: 85%   Direction: 190°S
Pressure: 30.24"   Gusts: NA
Location:  51.42°N, 110.8°W
Report Text: CYKY 260900Z 19005KT 15SM OVC025 M12/M14 A3024 RMK SC8 SLP289
Loading
Personal Weather Stations






























Interactive Weather Map New forecast layout! Learn more

10-Day Weather Forecast

Advertisements
Track Severe Weather on mobile